Time;durP1;ratioP1;P1;durP2;ratioP2;P2;SDS_P1;SDS_P2;PMS_P1;PMS_P2;Temp;Humidity;BMP_temperature;BMP_pressure;BME280_temperature;BME280_humidity;BME280_pressure;Samples;Min_cycle;Max_cycle;Signal;HPM_P1;HPM_P2
2023/08/20 00:01:25;;;;;;;8.82;5.40;;;23.50;64.10;;;;;;5037600;28;20522;-84
2023/08/20 00:03:52;;;;;;;12.43;6.10;;;23.40;64.40;;;;;;5037413;28;20056;-83
2023/08/20 00:06:18;;;;;;;11.77;5.63;;;23.40;64.60;;;;;;5037222;28;20076;-83
2023/08/20 00:08:44;;;;;;;6.80;5.22;;;23.30;64.90;;;;;;5037451;28;20060;-83
2023/08/20 00:11:11;;;;;;;8.60;4.63;;;23.20;65.10;;;;;;5055260;28;20032;-84
2023/08/20 00:13:37;;;;;;;8.73;5.20;;;23.20;65.20;;;;;;5037299;28;20052;-81
2023/08/20 00:16:03;;;;;;;7.82;4.90;;;23.20;65.60;;;;;;5037233;28;20033;-82
2023/08/20 00:18:29;;;;;;;8.73;5.45;;;23.20;65.50;;;;;;5037426;28;20461;-83
2023/08/20 00:20:55;;;;;;;7.40;5.50;;;23.20;65.60;;;;;;5037106;28;20389;-82
2023/08/20 00:23:21;;;;;;;9.27;5.93;;;23.20;65.60;;;;;;5037167;28;20385;-82
2023/08/20 00:25:47;;;;;;;10.52;5.88;;;23.10;65.80;;;;;;5036387;28;20029;-82
2023/08/20 00:28:13;;;;;;;5.80;5.00;;;22.90;66.50;;;;;;5036900;28;20025;-83
2023/08/20 00:30:39;;;;;;;8.50;5.32;;;22.90;66.80;;;;;;5037012;28;20378;-84
2023/08/20 00:33:05;;;;;;;10.00;6.53;;;22.90;67.00;;;;;;5020715;28;20025;-83
2023/08/20 00:35:31;;;;;;;8.10;5.55;;;22.90;67.80;;;;;;5037208;28;20041;-84
2023/08/20 00:37:56;;;;;;;10.80;6.10;;;22.70;67.50;;;;;;5036576;28;20025;-81
2023/08/20 00:40:23;;;;;;;8.68;5.75;;;22.70;67.80;;;;;;5036888;28;20028;-82
2023/08/20 00:42:49;;;;;;;9.10;5.97;;;22.60;68.10;;;;;;5036847;28;20091;-81
2023/08/20 00:45:16;;;;;;;7.65;5.75;;;22.60;68.20;;;;;;5036462;28;20025;-81
2023/08/20 00:47:42;;;;;;;8.55;5.90;;;22.70;68.20;;;;;;5036602;28;20374;-81
2023/08/20 00:50:09;;;;;;;8.43;6.18;;;22.70;68.30;;;;;;5035745;28;20025;-80
2023/08/20 00:52:35;;;;;;;10.75;5.97;;;22.60;68.40;;;;;;5036305;28;20025;-80
2023/08/20 00:55:08;;;;;;;7.28;5.68;;;22.60;68.40;;;;;;5036176;28;20051;-81
2023/08/20 00:57:35;;;;;;;6.88;5.53;;;22.50;68.40;;;;;;5036371;28;20075;-81
2023/08/20 01:00:01;;;;;;;7.50;5.70;;;22.70;68.50;;;;;;5036394;28;20055;-81
2023/08/20 01:02:26;;;;;;;8.45;5.97;;;22.70;68.10;;;;;;5036540;28;20025;-81
2023/08/20 01:04:52;;;;;;;6.30;5.63;;;22.70;68.30;;;;;;5036019;28;20104;-81
2023/08/20 01:07:29;;;;;;;9.13;6.13;;;22.60;68.20;;;;;;5042994;28;20037;-79
2023/08/20 01:10:09;;;;;;;10.32;6.65;;;22.60;68.40;;;;;;5045344;28;20095;-81
2023/08/20 01:12:35;;;;;;;6.07;5.47;;;22.60;68.60;;;;;;5044505;28;20434;-79
2023/08/20 01:15:01;;;;;;;7.75;6.10;;;22.50;69.10;;;;;;5036441;28;20029;-80
2023/08/20 01:17:26;;;;;;;6.47;5.85;;;22.50;69.30;;;;;;5036349;28;20025;-79
2023/08/20 01:19:52;;;;;;;7.85;6.00;;;22.50;69.30;;;;;;5054102;28;20048;-81
2023/08/20 01:22:45;;;;;;;9.98;6.15;;;22.50;69.50;;;;;;5036103;28;20429;-83
2023/08/20 01:25:45;;;;;;;8.05;6.35;;;22.40;69.40;;;;;;5036177;28;20119;-82
2023/08/20 01:28:29;;;;;;;6.85;5.72;;;22.40;69.70;;;;;;5036124;28;20389;-84
2023/08/20 01:30:58;;;;;;;7.75;6.15;;;22.50;69.40;;;;;;5036189;28;20021;-84
2023/08/20 01:33:24;;;;;;;10.93;6.13;;;22.40;69.20;;;;;;5035988;28;20383;-81
2023/08/20 01:35:54;;;;;;;8.90;6.50;;;22.40;69.50;;;;;;5035872;28;20603;-81
2023/08/20 01:38:20;;;;;;;9.88;6.43;;;22.30;69.90;;;;;;5035957;28;20024;-82
2023/08/20 01:40:46;;;;;;;11.77;5.88;;;22.30;70.10;;;;;;5035496;28;20017;-83
2023/08/20 01:43:12;;;;;;;7.85;6.45;;;22.30;70.00;;;;;;5019494;28;20124;-82
2023/08/20 01:45:39;;;;;;;8.25;6.53;;;22.30;70.30;;;;;;5035446;28;20123;-82
2023/08/20 01:48:04;;;;;;;9.80;6.45;;;22.30;70.50;;;;;;5035644;28;20115;-83
2023/08/20 01:50:30;;;;;;;11.07;6.50;;;22.20;70.70;;;;;;5035218;28;20119;-82
2023/08/20 01:52:56;;;;;;;11.43;6.43;;;22.20;70.90;;;;;;5035533;28;20150;-82
2023/08/20 01:55:22;;;;;;;11.70;6.97;;;22.10;71.30;;;;;;5035485;28;20021;-82
2023/08/20 01:57:48;;;;;;;8.88;6.63;;;22.10;71.70;;;;;;5052317;28;20029;-81
2023/08/20 02:00:14;;;;;;;7.28;6.25;;;22.10;71.70;;;;;;5035485;28;20021;-80
2023/08/20 02:02:40;;;;;;;11.10;6.70;;;22.10;71.40;;;;;;5053328;28;20048;-80
2023/08/20 02:05:05;;;;;;;7.13;6.15;;;22.10;71.50;;;;;;5035305;28;20033;-82
2023/08/20 02:07:31;;;;;;;7.93;6.55;;;22.10;71.40;;;;;;5035345;28;20017;-82
2023/08/20 02:09:57;;;;;;;10.55;6.50;;;22.10;72.50;;;;;;5035364;28;20029;-81
2023/08/20 02:12:22;;;;;;;9.23;6.35;;;22.10;71.60;;;;;;5034429;28;20358;-77
2023/08/20 02:14:48;;;;;;;7.55;6.30;;;21.90;72.20;;;;;;5034665;28;20074;-81
2023/08/20 02:17:14;;;;;;;7.07;6.25;;;21.90;72.60;;;;;;5035348;28;20032;-81
2023/08/20 02:19:39;;;;;;;9.73;6.15;;;21.90;72.80;;;;;;5034821;28;20439;-81
2023/08/20 02:22:05;;;;;;;12.45;6.60;;;21.80;72.90;;;;;;5035289;28;20433;-81
2023/08/20 02:24:31;;;;;;;9.35;7.05;;;21.80;73.00;;;;;;5035198;28;20353;-82
2023/08/20 02:26:56;;;;;;;8.27;6.80;;;21.90;73.00;;;;;;5035216;28;20029;-81
2023/08/20 02:29:22;;;;;;;8.73;7.07;;;21.90;73.00;;;;;;5035196;28;20029;-80
2023/08/20 02:31:48;;;;;;;9.18;6.45;;;21.90;73.00;;;;;;5034999;28;20032;-82
2023/08/20 02:34:13;;;;;;;9.63;6.80;;;21.90;73.00;;;;;;5034956;28;20021;-81
2023/08/20 02:36:39;;;;;;;9.77;7.10;;;21.80;73.30;;;;;;5035017;28;20029;-81
2023/08/20 02:39:07;;;;;;;11.25;6.32;;;21.70;73.90;;;;;;5052838;28;20021;-80
2023/08/20 02:41:34;;;;;;;10.20;6.72;;;21.60;74.30;;;;;;5034850;28;20025;-81
2023/08/20 02:44:00;;;;;;;7.70;6.70;;;21.60;74.50;;;;;;5035002;28;20396;-82
2023/08/20 02:46:25;;;;;;;9.90;6.60;;;21.70;74.50;;;;;;5034874;28;20039;-81
2023/08/20 02:48:51;;;;;;;9.50;6.22;;;21.90;73.80;;;;;;5034927;28;20021;-81
2023/08/20 02:51:16;;;;;;;9.30;6.32;;;21.90;73.60;;;;;;5034829;28;20086;-81
2023/08/20 02:53:42;;;;;;;9.38;6.70;;;21.90;73.40;;;;;;5034764;28;20045;-81
2023/08/20 02:56:07;;;;;;;10.25;7.00;;;21.90;73.30;;;;;;5034829;28;20025;-81
2023/08/20 02:58:33;;;;;;;9.50;6.85;;;21.90;73.40;;;;;;5034896;28;20438;-81
2023/08/20 03:00:58;;;;;;;10.13;6.18;;;21.90;73.20;;;;;;5034878;28;20032;-77
2023/08/20 03:03:24;;;;;;;9.80;6.35;;;21.90;72.80;;;;;;5052665;28;20057;-75
2023/08/20 03:05:50;;;;;;;7.50;6.57;;;21.90;72.50;;;;;;5034318;28;20063;-75
2023/08/20 03:08:15;;;;;;;8.18;6.63;;;21.90;73.00;;;;;;5034813;28;20021;-75
2023/08/20 03:10:41;;;;;;;9.90;6.53;;;21.70;73.20;;;;;;5038349;28;20036;-76
2023/08/20 03:13:07;;;;;;;9.40;7.30;;;21.70;73.30;;;;;;5038341;28;20553;-77
2023/08/20 03:15:32;;;;;;;7.53;6.72;;;21.70;73.50;;;;;;5038401;28;20032;-76
2023/08/20 03:17:58;;;;;;;8.07;7.05;;;21.70;73.50;;;;;;5038376;28;20017;-76
2023/08/20 03:20:23;;;;;;;8.20;6.80;;;21.70;73.10;;;;;;5038552;28;20469;-77
2023/08/20 03:22:49;;;;;;;7.88;6.78;;;21.70;73.10;;;;;;5038128;28;20033;-76
2023/08/20 03:25:15;;;;;;;8.75;7.07;;;21.70;73.30;;;;;;5021580;28;20079;-76
2023/08/20 03:27:42;;;;;;;8.82;7.18;;;21.60;73.10;;;;;;5038002;28;20029;-75
2023/08/20 03:30:08;;;;;;;8.00;6.40;;;21.60;73.40;;;;;;5037484;28;20053;-75
2023/08/20 03:32:33;;;;;;;10.73;6.95;;;21.50;73.50;;;;;;5037847;28;20025;-77
2023/08/20 03:34:59;;;;;;;12.38;7.28;;;21.50;73.70;;;;;;5037818;28;20024;-76
2023/08/20 03:37:25;;;;;;;8.82;7.32;;;21.50;74.20;;;;;;5037937;28;20111;-76
2023/08/20 03:39:51;;;;;;;9.63;7.80;;;21.50;74.10;;;;;;5037878;28;20029;-75
2023/08/20 03:42:17;;;;;;;8.18;6.97;;;21.50;74.00;;;;;;5037937;28;20028;-75
2023/08/20 03:44:43;;;;;;;18.25;7.47;;;21.50;73.90;;;;;;5037556;28;20025;-75
2023/08/20 03:47:08;;;;;;;7.32;6.53;;;21.60;73.60;;;;;;5037854;28;20037;-78
2023/08/20 03:49:34;;;;;;;10.50;6.60;;;21.50;73.70;;;;;;5037718;28;20469;-75
2023/08/20 03:52:01;;;;;;;8.73;6.82;;;21.50;74.10;;;;;;5037643;28;20102;-74
2023/08/20 03:54:28;;;;;;;7.20;6.38;;;21.60;73.80;;;;;;5037611;28;20024;-75
2023/08/20 03:56:54;;;;;;;7.10;6.50;;;21.60;73.50;;;;;;5021406;28;20056;-77
2023/08/20 03:59:20;;;;;;;8.93;6.53;;;21.60;73.40;;;;;;5037469;28;20048;-75
2023/08/20 04:01:45;;;;;;;9.25;7.05;;;21.60;73.70;;;;;;5037554;28;20443;-75
2023/08/20 04:04:11;;;;;;;9.77;7.30;;;21.60;73.60;;;;;;5037426;28;20444;-77
2023/08/20 04:06:36;;;;;;;9.88;7.32;;;21.70;73.70;;;;;;5037051;28;20037;-75
2023/08/20 04:09:03;;;;;;;9.13;7.35;;;21.50;74.30;;;;;;5037333;28;20414;-77
2023/08/20 04:11:28;;;;;;;7.80;6.50;;;21.40;75.30;;;;;;5037431;28;20067;-76
2023/08/20 04:13:54;;;;;;;7.90;7.10;;;21.40;75.80;;;;;;5037201;28;20068;-75
2023/08/20 04:16:19;;;;;;;8.00;7.20;;;21.40;75.60;;;;;;5037273;28;20436;-75
2023/08/20 04:18:45;;;;;;;8.90;8.00;;;21.50;75.50;;;;;;5037073;28;20028;-75
2023/08/20 04:21:11;;;;;;;9.63;7.53;;;21.50;75.90;;;;;;5035870;28;20025;-76
2023/08/20 04:23:36;;;;;;;10.57;8.00;;;21.40;76.30;;;;;;5037163;28;20028;-75
2023/08/20 04:26:02;;;;;;;9.50;7.55;;;21.30;76.90;;;;;;5037083;28;20049;-75
2023/08/20 04:28:28;;;;;;;9.00;7.78;;;21.20;77.60;;;;;;5036937;28;20412;-75
2023/08/20 04:30:54;;;;;;;12.02;8.50;;;21.10;78.20;;;;;;5036836;28;20068;-75
2023/08/20 04:33:20;;;;;;;9.90;8.23;;;21.10;78.40;;;;;;5036617;28;20425;-76
2023/08/20 04:35:50;;;;;;;10.10;8.10;;;21.10;78.50;;;;;;5036588;28;20126;-76
2023/08/20 04:38:15;;;;;;;13.95;8.45;;;21.20;78.60;;;;;;5036842;28;20120;-77
2023/08/20 04:40:42;;;;;;;11.48;7.85;;;21.20;78.80;;;;;;5036941;28;20060;-78
2023/08/20 04:43:08;;;;;;;11.93;7.55;;;21.20;79.10;;;;;;5037126;28;20024;-76
2023/08/20 04:45:34;;;;;;;13.40;8.88;;;21.20;79.30;;;;;;5036965;28;20041;-78
2023/08/20 04:48:00;;;;;;;9.45;7.85;;;21.20;79.70;;;;;;5052472;28;20032;-82
2023/08/20 04:50:26;;;;;;;10.57;8.23;;;21.20;79.70;;;;;;5044814;28;20440;-81
2023/08/20 04:52:51;;;;;;;14.95;7.80;;;21.20;79.70;;;;;;5020416;28;20025;-80
2023/08/20 04:55:17;;;;;;;9.48;8.55;;;21.30;79.20;;;;;;5036986;28;20043;-85
2023/08/20 04:57:42;;;;;;;9.27;8.30;;;21.30;79.00;;;;;;5056465;28;20021;-80
2023/08/20 05:00:09;;;;;;;8.65;7.75;;;21.20;78.80;;;;;;5048722;28;20017;-79
2023/08/20 05:02:35;;;;;;;11.73;8.88;;;21.10;79.20;;;;;;5045814;28;20435;-81
2023/08/20 05:05:02;;;;;;;10.00;9.00;;;21.00;78.50;;;;;;5037477;28;20120;-81
2023/08/20 05:07:27;;;;;;;10.43;8.20;;;20.90;78.80;;;;;;5037011;28;20037;-81
2023/08/20 05:09:53;;;;;;;11.30;8.45;;;20.90;78.90;;;;;;5036758;28;20457;-85
2023/08/20 05:12:19;;;;;;;9.30;8.20;;;21.00;78.80;;;;;;5036545;28;20504;-84
2023/08/20 05:14:44;;;;;;;12.40;8.40;;;21.10;78.40;;;;;;5036641;28;20037;-81
2023/08/20 05:17:10;;;;;;;13.52;8.75;;;21.20;78.10;;;;;;5036624;28;20040;-86
2023/08/20 05:19:35;;;;;;;12.38;8.52;;;21.20;78.00;;;;;;5036654;28;20056;-82
2023/08/20 05:22:01;;;;;;;9.63;8.25;;;21.20;78.20;;;;;;5037660;28;20079;-91
2023/08/20 05:24:27;;;;;;;10.00;8.15;;;21.20;78.60;;;;;;5054429;28;20013;-85
2023/08/20 05:27:10;;;;;;;9.00;8.10;;;21.40;78.90;;;;;;5036756;28;20041;-85
2023/08/20 05:29:37;;;;;;;10.10;8.13;;;21.40;79.00;;;;;;5036273;28;20028;-82
2023/08/20 05:32:03;;;;;;;12.75;8.70;;;21.50;79.80;;;;;;5035487;28;20029;-82
2023/08/20 05:34:29;;;;;;;12.65;8.30;;;21.60;78.60;;;;;;5035988;28;20025;-83
2023/08/20 05:36:54;;;;;;;12.98;8.25;;;21.60;78.50;;;;;;5036249;28;20031;-89
2023/08/20 05:39:20;;;;;;;8.75;7.70;;;21.60;78.50;;;;;;5036262;28;20036;-82
2023/08/20 05:41:46;;;;;;;10.98;7.82;;;21.70;78.40;;;;;;5035956;28;20347;-84
2023/08/20 05:44:11;;;;;;;9.45;7.30;;;21.80;78.30;;;;;;5035991;28;20028;-82
2023/08/20 05:46:37;;;;;;;9.40;7.32;;;21.90;78.00;;;;;;5036089;28;20098;-83
2023/08/20 05:49:02;;;;;;;12.05;7.00;;;22.00;77.50;;;;;;5036044;28;20021;-83
2023/08/20 05:51:29;;;;;;;9.48;7.47;;;22.10;77.10;;;;;;5036418;28;20079;-82
2023/08/20 05:53:55;;;;;;;10.30;7.30;;;22.30;76.50;;;;;;5036900;28;20013;-82
2023/08/20 05:56:20;;;;;;;10.70;7.70;;;22.40;76.10;;;;;;5035846;28;20036;-81
2023/08/20 05:58:46;;;;;;;10.18;7.55;;;22.50;75.60;;;;;;5038852;28;20036;-85
2023/08/20 06:01:11;;;;;;;9.50;7.05;;;22.60;75.30;;;;;;5038428;28;20025;-88
2023/08/20 06:03:37;;;;;;;9.20;7.63;;;22.70;75.20;;;;;;5038025;28;20461;-77
2023/08/20 06:06:03;;;;;;;10.73;7.85;;;22.80;74.70;;;;;;5039841;28;20033;-75
2023/08/20 06:08:29;;;;;;;9.18;7.25;;;22.80;74.70;;;;;;5035487;28;20115;-75
2023/08/20 06:10:54;;;;;;;12.05;8.02;;;22.80;74.80;;;;;;5035335;28;20144;-75
2023/08/20 06:13:20;;;;;;;12.52;7.57;;;22.90;74.70;;;;;;5035160;28;20547;-75
2023/08/20 06:15:45;;;;;;;10.15;7.90;;;23.00;74.70;;;;;;5035718;28;20479;-76
2023/08/20 06:18:11;;;;;;;10.32;6.78;;;23.00;74.20;;;;;;5035391;28;20039;-80
2023/08/20 06:20:36;;;;;;;9.60;7.00;;;23.20;74.00;;;;;;5035602;28;20017;-76
2023/08/20 06:23:02;;;;;;;9.70;7.13;;;23.40;73.30;;;;;;5035517;28;20031;-77
2023/08/20 06:25:28;;;;;;;7.60;6.80;;;23.60;72.60;;;;;;5035292;28;20033;-79
2023/08/20 06:27:54;;;;;;;8.75;6.75;;;23.90;71.60;;;;;;5035418;28;20025;-80
2023/08/20 06:30:20;;;;;;;9.57;7.40;;;24.10;70.90;;;;;;5019119;28;20037;-80
2023/08/20 06:32:46;;;;;;;9.30;6.50;;;24.30;69.70;;;;;;5037513;28;20108;-80
2023/08/20 06:35:11;;;;;;;16.95;7.97;;;24.30;70.00;;;;;;5035194;28;20022;-82
2023/08/20 06:37:39;;;;;;;9.93;7.40;;;24.50;68.60;;;;;;5035816;28;20672;-81
2023/08/20 06:40:06;;;;;;;10.65;7.88;;;24.50;68.30;;;;;;5036701;28;20029;-85
2023/08/20 06:42:31;;;;;;;10.05;7.60;;;24.40;68.90;;;;;;5036647;28;20029;-84
2023/08/20 06:44:57;;;;;;;10.50;7.57;;;24.00;70.10;;;;;;5040164;28;20032;-84
2023/08/20 06:47:22;;;;;;;10.05;8.13;;;23.90;71.00;;;;;;5040415;28;20078;-84
2023/08/20 06:49:49;;;;;;;8.23;6.88;;;23.70;71.40;;;;;;5040378;28;20029;-85
2023/08/20 06:52:14;;;;;;;9.13;7.90;;;23.70;72.10;;;;;;5039499;28;20488;-81
2023/08/20 06:54:40;;;;;;;8.82;7.47;;;23.70;71.40;;;;;;5022474;28;20025;-81
2023/08/20 06:57:05;;;;;;;12.73;8.27;;;23.80;71.20;;;;;;5038632;28;20025;-81
2023/08/20 06:59:31;;;;;;;9.77;7.50;;;23.90;71.00;;;;;;5039096;28;20130;-81
2023/08/20 07:01:57;;;;;;;9.20;7.38;;;24.00;70.50;;;;;;5038898;28;20033;-82
2023/08/20 07:04:23;;;;;;;12.25;7.80;;;24.00;70.20;;;;;;5056420;28;20028;-80
2023/08/20 07:06:50;;;;;;;8.60;7.68;;;24.20;69.70;;;;;;5038707;28;20110;-84
2023/08/20 07:09:16;;;;;;;10.00;7.90;;;24.20;69.50;;;;;;5039730;28;20042;-84
2023/08/20 07:11:41;;;;;;;11.20;7.65;;;24.30;69.20;;;;;;5041123;28;20036;-87
2023/08/20 07:14:07;;;;;;;10.45;7.97;;;24.30;69.10;;;;;;5039572;28;20143;-80
2023/08/20 07:16:33;;;;;;;9.65;7.07;;;24.40;68.90;;;;;;5057353;28;20029;-80
2023/08/20 07:18:59;;;;;;;9.23;6.93;;;24.60;68.40;;;;;;5039200;28;20060;-76
2023/08/20 07:21:24;;;;;;;9.43;7.43;;;24.70;67.90;;;;;;5038194;28;20550;-84
2023/08/20 07:23:50;;;;;;;17.92;8.68;;;24.90;67.70;;;;;;5022272;28;20029;-76
2023/08/20 07:26:15;;;;;;;12.70;8.60;;;24.90;67.20;;;;;;5039505;28;20492;-77
2023/08/20 07:28:56;;;;;;;14.98;8.30;;;25.00;66.70;;;;;;5043086;28;20027;-78
2023/08/20 07:31:26;;;;;;;12.45;7.93;;;25.00;66.40;;;;;;5038352;28;20021;-77
2023/08/20 07:33:52;;;;;;;12.70;7.90;;;25.10;66.10;;;;;;5038147;28;20449;-82
2023/08/20 07:36:21;;;;;;;13.73;7.57;;;25.00;66.40;;;;;;5038018;28;20116;-81
2023/08/20 07:38:47;;;;;;;14.50;7.55;;;25.20;66.10;;;;;;5037712;28;20496;-83
2023/08/20 07:41:13;;;;;;;11.30;7.20;;;25.40;65.60;;;;;;5037999;28;20029;-83
2023/08/20 07:43:39;;;;;;;9.27;7.05;;;25.50;64.80;;;;;;5034765;28;20036;-89
2023/08/20 07:46:06;;;;;;;13.95;6.35;;;25.60;64.60;;;;;;5017676;28;20035;-81
2023/08/20 07:48:31;;;;;;;12.68;7.45;;;25.80;63.30;;;;;;5018006;28;20043;-76
2023/08/20 07:50:59;;;;;;;9.40;7.22;;;25.80;63.80;;;;;;5017950;28;20521;-80
2023/08/20 07:53:25;;;;;;;8.00;6.93;;;26.00;63.60;;;;;;5018191;28;20021;-83
2023/08/20 07:55:51;;;;;;;9.88;6.93;;;26.00;63.00;;;;;;5016492;28;20025;-83
2023/08/20 07:58:16;;;;;;;10.45;7.15;;;26.00;63.40;;;;;;5018315;28;20017;-78
2023/08/20 08:00:42;;;;;;;11.75;7.13;;;26.10;62.90;;;;;;5018201;28;20361;-83
2023/08/20 08:03:09;;;;;;;9.70;7.28;;;26.20;62.30;;;;;;5018521;28;20028;-82
2023/08/20 08:05:35;;;;;;;9.60;7.38;;;26.20;62.50;;;;;;5017904;28;20030;-84
2023/08/20 08:08:01;;;;;;;9.02;6.68;;;26.30;61.60;;;;;;5017750;28;20030;-84
2023/08/20 08:10:26;;;;;;;11.35;7.78;;;26.20;61.30;;;;;;5017549;28;20021;-84
2023/08/20 08:12:52;;;;;;;9.30;7.72;;;26.20;61.70;;;;;;5017605;28;20490;-82
2023/08/20 08:15:17;;;;;;;9.57;7.78;;;26.20;61.20;;;;;;5001611;28;20030;-83
2023/08/20 08:17:44;;;;;;;11.23;7.60;;;26.20;62.30;;;;;;5017487;28;20029;-84
2023/08/20 08:20:09;;;;;;;11.00;8.20;;;26.40;62.20;;;;;;5017510;28;20026;-81
2023/08/20 08:22:36;;;;;;;12.23;7.43;;;26.40;61.20;;;;;;5017653;28;20109;-83
2023/08/20 08:25:02;;;;;;;9.30;6.78;;;26.50;60.80;;;;;;5017228;28;20031;-77
2023/08/20 08:27:27;;;;;;;8.73;7.18;;;26.60;60.40;;;;;;5017516;28;20124;-82
2023/08/20 08:29:53;;;;;;;11.98;8.40;;;26.70;60.90;;;;;;5017459;28;20017;-83
2023/08/20 08:32:18;;;;;;;11.05;8.07;;;26.70;60.00;;;;;;5017606;28;20550;-83
2023/08/20 08:34:44;;;;;;;11.88;6.95;;;26.30;61.50;;;;;;5016974;28;20029;-82
2023/08/20 08:37:10;;;;;;;9.73;7.60;;;26.20;62.40;;;;;;5017528;28;20028;-85
2023/08/20 08:39:36;;;;;;;12.90;8.02;;;26.20;62.40;;;;;;5024466;28;20075;-81
2023/08/20 08:42:04;;;;;;;8.13;7.28;;;26.20;62.90;;;;;;5033555;28;20485;-80
2023/08/20 08:44:34;;;;;;;10.20;7.38;;;26.30;62.90;;;;;;5027281;28;20021;-80
2023/08/20 08:47:02;;;;;;;9.57;7.85;;;26.60;61.70;;;;;;5019345;28;20044;-81
2023/08/20 08:49:29;;;;;;;10.18;7.45;;;26.70;61.60;;;;;;5027069;28;20116;-82
2023/08/20 08:51:57;;;;;;;8.60;7.70;;;26.80;61.60;;;;;;5027178;28;20088;-81
2023/08/20 08:54:23;;;;;;;16.00;8.45;;;26.60;60.70;;;;;;5028261;28;20105;-85
2023/08/20 08:56:49;;;;;;;12.30;8.40;;;26.50;60.50;;;;;;5018192;28;20045;-85
2023/08/20 08:59:15;;;;;;;9.95;6.40;;;26.50;60.70;;;;;;5026317;28;20029;-84
2023/08/20 09:01:41;;;;;;;12.30;7.40;;;26.60;59.70;;;;;;5022497;28;20025;-84
2023/08/20 09:04:07;;;;;;;9.73;7.90;;;26.70;59.70;;;;;;5025370;28;20128;-82
2023/08/20 09:06:51;;;;;;;11.00;7.82;;;26.70;59.60;;;;;;5021874;28;20433;-84
2023/08/20 09:09:21;;;;;;;10.63;7.30;;;26.60;60.10;;;;;;5026606;28;20127;-81
2023/08/20 09:11:48;;;;;;;9.63;6.93;;;26.60;60.30;;;;;;5028195;28;20029;-84
2023/08/20 09:14:32;;;;;;;11.10;7.05;;;26.70;59.90;;;;;;5025856;28;20037;-85
2023/08/20 09:16:59;;;;;;;11.33;7.07;;;26.80;58.30;;;;;;5016669;28;20017;-83
2023/08/20 09:19:30;;;;;;;9.88;6.82;;;27.10;59.00;;;;;;5016615;28;20302;-81
2023/08/20 09:21:58;;;;;;;8.38;6.35;;;27.30;58.80;;;;;;5000304;28;20430;-82
2023/08/20 09:24:31;;;;;;;12.68;7.63;;;27.50;57.90;;;;;;5016514;28;20056;-82
2023/08/20 09:26:59;;;;;;;7.70;5.72;;;27.80;57.10;;;;;;5015974;28;20064;-81
2023/08/20 09:29:24;;;;;;;10.73;6.60;;;27.90;56.40;;;;;;5016172;28;20159;-82
2023/08/20 09:32:01;;;;;;;11.88;6.78;;;28.10;56.90;;;;;;5016408;28;20076;-82
2023/08/20 09:34:36;;;;;;;10.13;6.72;;;28.20;55.80;;;;;;5016304;28;20099;-83
2023/08/20 09:37:02;;;;;;;8.52;5.68;;;28.20;54.40;;;;;;5016175;28;20022;-81
2023/08/20 09:39:28;;;;;;;9.77;6.60;;;28.40;54.50;;;;;;5015680;28;20036;-84
2023/08/20 09:41:57;;;;;;;7.88;6.45;;;28.60;54.50;;;;;;5015924;28;20025;-82
2023/08/20 09:44:23;;;;;;;10.88;5.85;;;28.80;54.60;;;;;;5015298;28;20063;-82
2023/08/20 09:46:51;;;;;;;10.00;6.22;;;28.90;53.00;;;;;;5015462;28;20037;-77
2023/08/20 09:49:19;;;;;;;8.35;5.90;;;28.90;52.90;;;;;;5033248;28;20045;-75
2023/08/20 09:51:49;;;;;;;5.88;4.88;;;29.00;53.90;;;;;;5032853;28;20108;-77
2023/08/20 09:54:55;;;;;;;8.35;5.47;;;29.20;52.30;;;;;;5015566;28;20116;-75
2023/08/20 09:57:36;;;;;;;7.05;4.90;;;29.50;50.30;;;;;;5015576;28;20459;-75
2023/08/20 10:00:12;;;;;;;9.35;5.00;;;29.50;47.70;;;;;;5015503;28;20025;-77
2023/08/20 10:02:38;;;;;;;9.15;5.32;;;29.70;49.10;;;;;;4999107;28;20041;-78
2023/08/20 10:05:11;;;;;;;9.23;5.32;;;29.80;45.10;;;;;;5032642;28;20037;-78
2023/08/20 10:07:38;;;;;;;10.70;5.88;;;29.70;45.90;;;;;;4998498;28;20049;-78
2023/08/20 10:10:10;;;;;;;9.38;5.22;;;29.70;46.10;;;;;;5015418;28;20024;-79
2023/08/20 10:12:38;;;;;;;7.43;5.28;;;29.70;46.80;;;;;;5019353;28;20049;-78
2023/08/20 10:15:05;;;;;;;9.75;5.43;;;29.90;48.10;;;;;;4999478;28;20029;-80
2023/08/20 10:17:33;;;;;;;9.05;5.00;;;30.20;46.80;;;;;;5015372;28;20128;-80
2023/08/20 10:20:00;;;;;;;8.02;4.68;;;30.30;44.10;;;;;;5014793;28;20489;-79
2023/08/20 10:22:39;;;;;;;10.70;5.55;;;30.40;44.10;;;;;;5014577;28;20041;-79
2023/08/20 10:25:07;;;;;;;11.30;5.63;;;30.30;45.40;;;;;;5014895;28;20498;-79
2023/08/20 10:27:38;;;;;;;6.32;4.80;;;30.20;44.70;;;;;;5015251;28;20064;-79
2023/08/20 10:30:15;;;;;;;10.05;4.85;;;30.40;45.50;;;;;;5015344;28;20021;-78
2023/08/20 10:32:52;;;;;;;12.60;4.93;;;30.70;43.90;;;;;;5015186;28;20041;-79
2023/08/20 10:35:26;;;;;;;11.85;5.30;;;30.90;43.80;;;;;;5015105;28;20029;-79
2023/08/20 10:38:07;;;;;;;6.90;5.20;;;31.00;44.10;;;;;;5015254;28;20026;-80
2023/08/20 10:40:58;;;;;;;14.25;4.90;;;31.10;42.70;;;;;;5015343;28;20432;-80
2023/08/20 10:43:36;;;;;;;8.70;5.07;;;31.30;43.60;;;;;;5015170;28;20470;-79
2023/08/20 10:46:06;;;;;;;9.55;5.45;;;31.40;43.30;;;;;;5015188;28;20030;-79
2023/08/20 10:48:41;;;;;;;8.88;5.13;;;31.50;43.30;;;;;;5014786;28;20025;-78
2023/08/20 10:51:12;;;;;;;7.72;4.78;;;31.60;43.20;;;;;;5014861;28;20461;-80
2023/08/20 10:53:41;;;;;;;7.55;5.13;;;31.70;42.40;;;;;;5015811;28;20363;-80
2023/08/20 10:56:14;;;;;;;8.48;5.20;;;31.80;41.60;;;;;;5015282;28;20057;-80
2023/08/20 10:58:47;;;;;;;10.07;4.88;;;31.90;40.80;;;;;;5015228;28;20091;-79
2023/08/20 11:01:22;;;;;;;13.45;4.72;;;32.00;41.40;;;;;;4982218;28;20036;-80
2023/08/20 11:03:50;;;;;;;7.85;4.97;;;32.20;40.90;;;;;;5032440;28;20347;-81
2023/08/20 11:06:18;;;;;;;9.32;4.97;;;32.20;41.20;;;;;;5014799;28;20120;-81
2023/08/20 11:08:44;;;;;;;8.27;4.57;;;32.00;40.90;;;;;;5014861;28;20029;-80
2023/08/20 11:11:11;;;;;;;7.90;4.47;;;32.00;41.60;;;;;;5015084;28;20075;-80
2023/08/20 11:13:37;;;;;;;8.60;5.05;;;31.90;40.30;;;;;;5014864;28;20081;-80
2023/08/20 11:16:03;;;;;;;8.65;4.85;;;32.20;40.80;;;;;;5014504;28;20053;-81
2023/08/20 11:18:33;;;;;;;9.85;4.50;;;32.30;40.10;;;;;;5014859;28;20021;-80
2023/08/20 11:20:59;;;;;;;11.60;4.72;;;32.30;40.30;;;;;;5014209;28;20112;-80
2023/08/20 11:23:25;;;;;;;9.52;5.15;;;32.40;39.10;;;;;;5014778;28;20160;-80
2023/08/20 11:25:51;;;;;;;14.40;4.50;;;32.30;40.90;;;;;;4998360;28;20158;-77
2023/08/20 11:28:18;;;;;;;10.73;5.13;;;32.40;39.20;;;;;;5014100;28;20032;-78
2023/08/20 11:30:46;;;;;;;9.00;4.70;;;32.60;38.40;;;;;;5015412;28;20156;-77
2023/08/20 11:33:13;;;;;;;11.23;4.60;;;32.80;37.10;;;;;;5018335;28;20414;-78
2023/08/20 11:35:41;;;;;;;8.88;4.72;;;32.80;36.90;;;;;;5023470;28;20108;-78
2023/08/20 11:38:06;;;;;;;7.25;4.47;;;33.10;38.20;;;;;;5017624;28;20378;-78
2023/08/20 11:40:32;;;;;;;6.97;4.25;;;33.50;37.20;;;;;;5017905;28;20033;-78
2023/08/20 11:42:58;;;;;;;9.30;4.20;;;33.60;34.60;;;;;;5018089;28;20070;-78
2023/08/20 11:45:23;;;;;;;9.07;4.35;;;33.40;35.20;;;;;;5017959;28;20029;-78
2023/08/20 11:47:49;;;;;;;10.10;4.50;;;33.20;37.10;;;;;;5017956;28;20029;-78
2023/08/20 11:50:14;;;;;;;7.75;4.13;;;33.50;37.20;;;;;;5017429;28;20124;-78
2023/08/20 11:52:40;;;;;;;8.65;4.90;;;33.40;37.60;;;;;;5017857;28;20466;-78
2023/08/20 11:55:07;;;;;;;9.60;4.15;;;33.50;37.10;;;;;;5017318;28;20092;-78
2023/08/20 11:57:32;;;;;;;12.80;4.90;;;33.90;36.40;;;;;;5017837;28;20021;-77
2023/08/20 12:00:04;;;;;;;10.75;4.57;;;33.80;35.70;;;;;;5017490;28;20033;-78
2023/08/20 12:02:30;;;;;;;10.45;5.28;;;33.40;37.70;;;;;;5017611;28;20109;-77
2023/08/20 12:04:59;;;;;;;7.78;4.10;;;33.50;36.80;;;;;;5017484;28;20053;-77
2023/08/20 12:07:28;;;;;;;8.13;4.22;;;33.60;36.60;;;;;;5017312;28;20478;-78
2023/08/20 12:09:56;;;;;;;9.27;5.20;;;33.80;36.50;;;;;;5016869;28;20029;-77
2023/08/20 12:12:22;;;;;;;7.47;4.63;;;33.50;37.60;;;;;;5016916;28;20406;-78
2023/08/20 12:14:48;;;;;;;9.52;4.82;;;33.50;36.40;;;;;;5017117;28;20484;-78
2023/08/20 12:17:21;;;;;;;9.93;4.50;;;33.90;37.20;;;;;;5035218;28;20105;-78
2023/08/20 12:19:49;;;;;;;7.05;4.55;;;33.90;35.80;;;;;;5017348;28;20466;-78
2023/08/20 12:22:15;;;;;;;9.38;4.63;;;34.10;36.20;;;;;;5017315;28;20029;-78
2023/08/20 12:24:41;;;;;;;10.38;5.03;;;34.50;35.80;;;;;;5016956;28;20044;-76
2023/08/20 12:27:07;;;;;;;8.80;4.97;;;34.40;35.50;;;;;;5016324;28;20091;-76
2023/08/20 12:29:33;;;;;;;12.13;7.03;;;34.50;35.10;;;;;;5017082;28;20389;-76
2023/08/20 12:31:58;;;;;;;8.25;4.80;;;34.70;34.60;;;;;;5017034;28;20025;-76
2023/08/20 12:34:25;;;;;;;7.53;4.50;;;34.80;34.90;;;;;;5017227;28;20433;-77
2023/08/20 12:36:51;;;;;;;8.20;4.72;;;35.10;34.70;;;;;;5017090;28;20100;-77
2023/08/20 12:39:17;;;;;;;15.18;5.25;;;35.20;34.60;;;;;;5016574;28;20026;-77
2023/08/20 12:41:43;;;;;;;12.43;4.72;;;35.30;34.10;;;;;;5019671;28;20486;-77
2023/08/20 12:44:10;;;;;;;7.53;4.60;;;35.10;34.90;;;;;;5045673;28;20024;-77